Time;durP1;ratioP1;P1;durP2;ratioP2;P2;SDS_P1;SDS_P2;PMS_P1;PMS_P2;Temp;Humidity;BMP_temperature;BMP_pressure;BME280_temperature;BME280_humidity;BME280_pressure;Samples;Min_cycle;Max_cycle;Signal;HPM_P1;HPM_P2
2022/10/09 00:01:05;;;;;;;37.50;28.35;;;20.30;75.50;;;;;;5040942;28;20032;-53
2022/10/09 00:03:31;;;;;;;39.25;28.52;;;20.30;75.60;;;;;;5035499;28;20095;-54
2022/10/09 00:05:57;;;;;;;34.30;27.23;;;20.30;75.50;;;;;;5034295;28;20034;-55
2022/10/09 00:08:23;;;;;;;34.20;29.65;;;20.30;75.60;;;;;;5041763;28;20546;-53
2022/10/09 00:10:49;;;;;;;34.15;28.88;;;20.20;75.70;;;;;;5053795;28;20033;-56
2022/10/09 00:13:15;;;;;;;37.15;28.27;;;20.20;75.70;;;;;;5053547;28;20024;-54
2022/10/09 00:15:43;;;;;;;38.60;26.80;;;20.30;75.70;;;;;;5036741;28;20033;-53
2022/10/09 00:18:11;;;;;;;35.08;27.60;;;20.20;75.70;;;;;;5053675;28;20036;-53
2022/10/09 00:20:43;;;;;;;34.38;29.08;;;20.30;76.00;;;;;;5052428;28;20044;-54
2022/10/09 00:23:10;;;;;;;36.00;28.70;;;20.20;76.10;;;;;;5042393;28;20284;-56
2022/10/09 00:25:36;;;;;;;35.47;27.65;;;20.20;76.30;;;;;;5033830;28;20116;-52
2022/10/09 00:28:03;;;;;;;33.53;26.33;;;20.20;76.30;;;;;;5038657;28;20107;-54
2022/10/09 00:30:29;;;;;;;37.88;29.00;;;20.20;76.40;;;;;;5053534;28;20033;-52
2022/10/09 00:32:54;;;;;;;40.28;28.88;;;20.20;76.40;;;;;;5035071;28;20097;-56
2022/10/09 00:35:21;;;;;;;36.90;28.63;;;20.20;76.40;;;;;;5033856;28;20508;-53
2022/10/09 00:37:47;;;;;;;39.47;28.98;;;20.20;76.30;;;;;;5043939;28;20331;-55
2022/10/09 00:40:14;;;;;;;39.00;27.80;;;20.10;76.40;;;;;;5052968;28;20025;-54
2022/10/09 00:42:40;;;;;;;35.38;27.50;;;20.10;76.60;;;;;;5052107;28;20026;-53
2022/10/09 00:45:13;;;;;;;36.77;28.10;;;20.10;76.60;;;;;;5052087;28;20033;-55
2022/10/09 00:47:43;;;;;;;33.42;27.58;;;20.10;76.80;;;;;;5044163;28;20399;-53
2022/10/09 00:50:17;;;;;;;36.65;26.60;;;20.10;77.00;;;;;;5047417;28;20029;-54
2022/10/09 00:52:44;;;;;;;39.33;27.95;;;20.10;77.00;;;;;;5033373;28;20033;-55
2022/10/09 00:55:11;;;;;;;37.72;27.92;;;20.00;77.00;;;;;;5034836;28;20025;-53
2022/10/09 00:57:38;;;;;;;41.35;30.05;;;20.10;77.10;;;;;;5032715;28;20033;-54
2022/10/09 01:00:07;;;;;;;36.55;28.73;;;20.10;77.10;;;;;;5044039;28;20028;-53
2022/10/09 01:02:33;;;;;;;36.10;29.52;;;20.00;77.20;;;;;;5042320;28;20100;-53
2022/10/09 01:04:58;;;;;;;36.53;27.65;;;20.00;77.30;;;;;;5034661;28;20638;-54
2022/10/09 01:07:39;;;;;;;33.72;27.85;;;20.00;77.20;;;;;;5034623;28;20060;-55
2022/10/09 01:10:18;;;;;;;36.95;28.42;;;20.00;77.40;;;;;;5057007;28;20027;-55
2022/10/09 01:12:59;;;;;;;39.70;30.73;;;20.00;77.60;;;;;;5044869;28;20033;-55
2022/10/09 01:15:58;;;;;;;36.35;28.63;;;20.00;77.70;;;;;;5036433;28;20036;-53
2022/10/09 01:18:43;;;;;;;39.13;28.98;;;20.00;77.80;;;;;;5027158;28;20069;-53
2022/10/09 01:21:38;;;;;;;33.25;28.92;;;20.00;78.10;;;;;;5033107;28;20547;-56
2022/10/09 01:24:25;;;;;;;34.10;29.90;;;20.00;78.00;;;;;;5030707;28;20041;-55
2022/10/09 01:27:01;;;;;;;34.28;28.15;;;19.90;77.90;;;;;;5047840;28;20068;-54
2022/10/09 01:29:33;;;;;;;41.33;29.27;;;19.90;77.90;;;;;;5050961;28;20381;-54
2022/10/09 01:32:00;;;;;;;39.75;28.63;;;19.90;77.90;;;;;;5049118;28;20026;-56
2022/10/09 01:34:26;;;;;;;36.15;27.70;;;20.00;77.80;;;;;;5032507;28;20231;-53
2022/10/09 01:36:55;;;;;;;33.85;27.90;;;19.90;77.70;;;;;;5041897;28;20029;-52
2022/10/09 01:39:22;;;;;;;37.60;28.38;;;20.00;77.80;;;;;;5033532;28;20496;-57
2022/10/09 01:41:52;;;;;;;39.33;29.23;;;20.00;78.00;;;;;;5032694;28;20029;-52
2022/10/09 01:44:20;;;;;;;38.08;27.67;;;19.90;77.90;;;;;;5032468;28;20487;-52
2022/10/09 01:46:47;;;;;;;37.90;27.95;;;19.90;78.10;;;;;;5046685;28;20025;-53
2022/10/09 01:49:21;;;;;;;40.30;28.15;;;19.90;78.10;;;;;;5050567;28;20029;-54
2022/10/09 01:52:17;;;;;;;40.38;28.42;;;19.80;78.40;;;;;;5042640;28;20054;-53
2022/10/09 01:54:50;;;;;;;41.47;29.60;;;19.80;78.70;;;;;;5071008;28;20025;-52
2022/10/09 01:57:26;;;;;;;37.30;29.52;;;19.80;78.60;;;;;;5056976;28;20091;-52
2022/10/09 01:59:54;;;;;;;38.92;29.42;;;19.80;78.40;;;;;;5052089;28;20439;-52
2022/10/09 02:02:21;;;;;;;40.25;29.45;;;19.80;78.50;;;;;;5046208;28;20055;-52
2022/10/09 02:04:48;;;;;;;34.88;27.27;;;19.80;78.60;;;;;;5047815;28;20247;-54
2022/10/09 02:07:15;;;;;;;40.20;29.45;;;19.80;78.50;;;;;;5051827;28;20111;-53
2022/10/09 02:09:41;;;;;;;;;;;19.80;78.40;;;;;;5035561;28;20072;-53
2022/10/09 02:12:10;;;;;;;34.40;26.52;;;19.80;78.60;;;;;;5041488;28;19913;-52
2022/10/09 02:14:36;;;;;;;34.35;27.20;;;19.80;78.60;;;;;;5042297;28;20399;-53
2022/10/09 02:17:07;;;;;;;44.85;30.55;;;19.80;78.40;;;;;;5051464;28;20431;-52
2022/10/09 02:19:41;;;;;;;36.85;28.83;;;19.90;78.20;;;;;;5046734;28;20029;-54
2022/10/09 02:22:17;;;;;;;34.45;28.70;;;19.80;78.20;;;;;;5051792;28;20029;-53
2022/10/09 02:24:44;;;;;;;35.78;27.05;;;19.90;78.30;;;;;;5051755;28;20383;-56
2022/10/09 02:27:12;;;;;;;31.98;26.95;;;19.90;78.20;;;;;;5035430;28;20037;-54
2022/10/09 02:29:40;;;;;;;37.72;28.88;;;19.80;78.10;;;;;;5047491;28;20025;-57
2022/10/09 02:32:05;;;;;;;35.80;28.75;;;19.80;78.30;;;;;;5051317;28;20395;-52
2022/10/09 02:34:31;;;;;;;32.47;27.55;;;19.90;78.30;;;;;;5042256;28;20491;-53
2022/10/09 02:36:57;;;;;;;37.42;28.85;;;19.80;78.40;;;;;;5031565;28;20041;-53
2022/10/09 02:39:23;;;;;;;33.67;29.52;;;19.90;78.40;;;;;;5035342;28;20060;-52
2022/10/09 02:41:48;;;;;;;37.05;29.13;;;19.90;78.30;;;;;;5045176;28;20373;-55
2022/10/09 02:44:14;;;;;;;35.15;29.48;;;19.80;78.40;;;;;;5084364;23;20494;-53
2022/10/09 02:46:39;;;;;;;36.30;28.90;;;19.80;78.70;;;;;;5051311;28;20109;-55
2022/10/09 02:49:06;;;;;;;36.33;27.25;;;19.80;78.80;;;;;;5050527;28;20017;-52
2022/10/09 02:51:32;;;;;;;35.95;29.35;;;19.80;78.70;;;;;;5050531;28;20028;-56
2022/10/09 02:53:58;;;;;;;36.55;28.48;;;19.80;78.70;;;;;;5044539;28;20100;-53
2022/10/09 02:56:25;;;;;;;36.85;28.63;;;19.80;78.60;;;;;;5044156;28;20044;-55
2022/10/09 02:58:51;;;;;;;36.05;29.00;;;19.90;78.50;;;;;;5042516;28;20510;-55
2022/10/09 03:01:17;;;;;;;37.63;28.80;;;19.90;78.60;;;;;;5033579;28;20112;-53
2022/10/09 03:03:43;;;;;;;35.63;28.95;;;19.90;78.70;;;;;;5032334;28;20555;-53
2022/10/09 03:06:14;;;;;;;37.88;29.00;;;19.80;78.60;;;;;;5043275;28;20087;-52
2022/10/09 03:08:43;;;;;;;44.25;29.52;;;19.90;78.60;;;;;;5041534;28;20052;-55
2022/10/09 03:11:09;;;;;;;36.55;27.40;;;19.90;78.60;;;;;;5049990;28;20051;-52
2022/10/09 03:13:36;;;;;;;39.03;28.45;;;19.80;78.60;;;;;;5050282;28;20482;-52
2022/10/09 03:16:11;;;;;;;36.00;28.60;;;19.80;78.70;;;;;;5071406;28;20395;-54
2022/10/09 03:18:37;;;;;;;34.55;28.08;;;19.80;78.60;;;;;;5061136;28;20368;-53
2022/10/09 03:21:15;;;;;;;37.97;26.57;;;19.80;78.60;;;;;;5052279;28;20056;-55
2022/10/09 03:23:42;;;;;;;37.45;28.05;;;19.80;78.70;;;;;;5054668;28;20036;-52
2022/10/09 03:26:10;;;;;;;38.65;29.15;;;19.80;78.70;;;;;;5055100;28;20082;-53
2022/10/09 03:28:39;;;;;;;31.75;27.73;;;19.80;78.70;;;;;;5054057;28;20025;-53
2022/10/09 03:31:05;;;;;;;35.58;27.17;;;19.80;78.80;;;;;;5054931;28;20094;-55
2022/10/09 03:33:32;;;;;;;37.90;29.65;;;19.80;78.80;;;;;;5038794;28;20037;-53
2022/10/09 03:35:57;;;;;;;38.10;29.17;;;19.80;78.80;;;;;;5043390;28;20479;-52
2022/10/09 03:38:23;;;;;;;36.67;28.42;;;19.80;78.80;;;;;;5054839;28;20040;-53
2022/10/09 03:40:49;;;;;;;34.92;28.42;;;19.80;78.90;;;;;;5045163;28;20435;-52
2022/10/09 03:43:15;;;;;;;36.17;28.65;;;19.80;78.90;;;;;;5035654;28;20069;-55
2022/10/09 03:45:41;;;;;;;51.45;30.38;;;19.70;78.90;;;;;;5034899;28;20017;-52
2022/10/09 03:48:12;;;;;;;36.25;29.38;;;19.70;78.80;;;;;;5034538;28;20468;-54
2022/10/09 03:50:38;;;;;;;34.03;28.98;;;19.70;78.90;;;;;;5034743;28;20029;-53
2022/10/09 03:53:06;;;;;;;36.10;28.30;;;19.70;79.00;;;;;;5034720;28;20029;-54
2022/10/09 03:55:31;;;;;;;38.92;28.70;;;19.70;79.10;;;;;;5034567;28;20063;-53
2022/10/09 03:57:57;;;;;;;36.95;29.98;;;20.20;80.90;;;;;;5036187;28;20026;-55
2022/10/09 04:00:23;;;;;;;41.28;30.33;;;19.70;87.70;;;;;;5050856;28;20032;-56
2022/10/09 04:02:49;;;;;;;35.42;30.73;;;19.70;79.20;;;;;;5044992;28;20025;-57
2022/10/09 04:05:15;;;;;;;40.20;30.00;;;19.70;79.10;;;;;;5041302;28;20043;-56
2022/10/09 04:07:41;;;;;;;41.85;29.92;;;19.70;79.10;;;;;;5042332;28;20026;-53
2022/10/09 04:10:07;;;;;;;40.78;30.85;;;19.70;79.10;;;;;;5042320;28;20504;-53
2022/10/09 04:12:32;;;;;;;36.15;29.08;;;19.70;85.90;;;;;;5044536;28;20025;-53
2022/10/09 04:14:58;;;;;;;38.97;30.02;;;19.70;79.30;;;;;;5043695;28;20025;-55
2022/10/09 04:17:24;;;;;;;38.13;30.67;;;19.60;79.40;;;;;;5042806;28;20017;-56
2022/10/09 04:19:49;;;;;;;45.45;30.98;;;19.70;79.50;;;;;;5043449;28;20040;-55
2022/10/09 04:22:15;;;;;;;39.70;29.77;;;19.60;79.70;;;;;;5041962;28;20022;-56
2022/10/09 04:24:41;;;;;;;40.35;30.17;;;19.60;79.80;;;;;;5033979;28;20029;-53
2022/10/09 04:27:06;;;;;;;37.42;30.83;;;19.60;79.70;;;;;;5039177;28;20087;-54
2022/10/09 04:29:32;;;;;;;40.90;31.30;;;19.60;79.60;;;;;;5045696;28;20030;-54
2022/10/09 04:31:58;;;;;;;37.78;31.50;;;19.60;80.10;;;;;;5032872;28;20100;-55
2022/10/09 04:34:24;;;;;;;44.78;32.30;;;19.60;80.10;;;;;;5033880;28;20045;-57
2022/10/09 04:36:49;;;;;;;39.78;31.58;;;19.70;79.50;;;;;;5033871;28;20026;-53
2022/10/09 04:39:15;;;;;;;38.47;31.40;;;19.60;79.60;;;;;;5033858;28;20099;-53
2022/10/09 04:41:40;;;;;;;36.78;29.73;;;19.60;79.70;;;;;;5033744;28;20479;-56
2022/10/09 04:44:06;;;;;;;40.95;32.13;;;19.60;79.70;;;;;;5038627;28;20521;-53
2022/10/09 04:46:32;;;;;;;42.53;33.50;;;19.60;79.70;;;;;;5053626;28;20083;-55
2022/10/09 04:48:57;;;;;;;39.72;31.33;;;19.60;79.80;;;;;;5053511;28;20057;-56
2022/10/09 04:51:23;;;;;;;40.90;32.17;;;19.60;80.10;;;;;;5046851;28;20025;-52
2022/10/09 04:53:49;;;;;;;43.95;31.25;;;19.60;80.00;;;;;;5044103;28;20017;-53
2022/10/09 04:56:18;;;;;;;38.65;30.83;;;19.50;80.00;;;;;;5042444;28;20433;-56
2022/10/09 04:58:45;;;;;;;45.88;31.88;;;19.60;80.20;;;;;;5041983;28;20036;-53
2022/10/09 05:01:20;;;;;;;40.85;30.90;;;19.50;80.20;;;;;;5043784;28;20021;-57
2022/10/09 05:03:46;;;;;;;49.55;32.53;;;19.50;80.30;;;;;;5043478;28;20060;-57
2022/10/09 05:06:13;;;;;;;40.22;32.85;;;19.60;80.30;;;;;;5040827;28;20029;-57
2022/10/09 05:08:39;;;;;;;41.83;32.83;;;19.50;80.10;;;;;;5041531;28;20380;-53
2022/10/09 05:11:10;;;;;;;40.57;31.97;;;19.50;80.10;;;;;;5039343;28;20033;-55
2022/10/09 05:13:38;;;;;;;38.70;30.95;;;19.50;80.20;;;;;;5031810;28;20900;-55
2022/10/09 05:16:06;;;;;;;49.80;31.35;;;19.40;86.50;;;;;;5033234;28;20045;-53
2022/10/09 05:18:32;;;;;;;39.33;30.73;;;19.50;80.80;;;;;;5032804;28;20037;-55
2022/10/09 05:20:58;;;;;;;44.67;31.73;;;19.50;80.70;;;;;;5033005;28;20022;-52
2022/10/09 05:23:24;;;;;;;41.10;32.03;;;19.50;81.30;;;;;;5032818;28;20092;-56
2022/10/09 05:25:58;;;;;;;43.15;33.05;;;19.50;80.60;;;;;;5032962;28;20029;-52
2022/10/09 05:28:24;;;;;;;40.53;32.42;;;19.50;80.50;;;;;;5032763;28;20025;-53
2022/10/09 05:30:50;;;;;;;46.58;32.20;;;19.50;80.60;;;;;;5032912;28;20025;-52
2022/10/09 05:33:16;;;;;;;41.83;32.33;;;19.40;81.00;;;;;;5032809;28;20067;-55
2022/10/09 05:35:52;;;;;;;37.50;31.13;;;19.40;81.20;;;;;;5032747;28;20543;-54
2022/10/09 05:38:18;;;;;;;47.80;33.78;;;19.40;81.50;;;;;;5031242;28;20120;-55
2022/10/09 05:40:51;;;;;;;44.30;33.13;;;19.40;81.50;;;;;;5032871;28;20025;-56
2022/10/09 05:43:17;;;;;;;44.58;35.08;;;19.40;81.70;;;;;;5032141;28;20108;-55
2022/10/09 05:45:43;;;;;;;42.72;33.95;;;19.30;81.90;;;;;;5031403;28;20480;-55
2022/10/09 05:48:08;;;;;;;43.80;32.63;;;19.30;82.00;;;;;;5032294;28;20150;-56
2022/10/09 05:50:34;;;;;;;53.22;34.15;;;19.30;82.00;;;;;;5031160;28;20036;-53
2022/10/09 05:53:01;;;;;;;53.50;35.10;;;19.40;81.90;;;;;;5032365;28;20025;-54
2022/10/09 05:55:27;;;;;;;49.05;34.30;;;19.40;82.00;;;;;;5032382;28;20395;-53
2022/10/09 05:57:52;;;;;;;48.80;35.55;;;19.40;82.10;;;;;;5032246;28;20069;-55
2022/10/09 06:00:18;;;;;;;44.90;34.55;;;19.40;82.10;;;;;;5032233;28;20037;-54
2022/10/09 06:02:44;;;;;;;55.72;37.53;;;19.40;82.10;;;;;;5032213;28;20021;-53
2022/10/09 06:05:10;;;;;;;49.65;37.45;;;19.40;82.10;;;;;;5032045;28;20439;-56
2022/10/09 06:07:36;;;;;;;46.78;36.17;;;19.40;82.30;;;;;;5032230;28;20029;-56
2022/10/09 06:10:03;;;;;;;45.13;37.03;;;19.40;82.20;;;;;;5032054;28;20026;-55
2022/10/09 06:12:28;;;;;;;50.83;34.85;;;19.30;85.80;;;;;;5032078;28;20033;-55
2022/10/09 06:14:54;;;;;;;45.72;35.85;;;19.40;82.20;;;;;;5032022;28;20036;-52
2022/10/09 06:17:20;;;;;;;47.40;34.72;;;19.40;82.40;;;;;;5030643;28;20068;-56
2022/10/09 06:19:45;;;;;;;49.15;37.00;;;19.40;82.20;;;;;;5030520;28;20377;-56
2022/10/09 06:22:11;;;;;;;49.67;38.00;;;19.40;82.20;;;;;;5031931;28;20036;-55
2022/10/09 06:24:37;;;;;;;52.08;37.97;;;19.40;82.30;;;;;;5031628;28;20148;-55
2022/10/09 06:27:02;;;;;;;50.08;38.42;;;19.30;82.60;;;;;;5030428;28;20519;-54
2022/10/09 06:29:29;;;;;;;56.05;40.70;;;19.30;82.80;;;;;;5031696;28;20087;-56
2022/10/09 06:31:55;;;;;;;49.50;38.75;;;19.30;83.00;;;;;;5031563;28;20037;-53
2022/10/09 06:34:21;;;;;;;49.87;38.23;;;19.40;82.80;;;;;;5031620;28;20032;-54
2022/10/09 06:36:47;;;;;;;52.42;36.17;;;19.40;82.60;;;;;;5031555;28;20034;-52
2022/10/09 06:39:13;;;;;;;52.78;39.85;;;19.40;82.70;;;;;;5031437;28;20017;-53
2022/10/09 06:41:39;;;;;;;54.03;40.72;;;19.40;83.10;;;;;;5031512;28;20096;-56
2022/10/09 06:44:09;;;;;;;51.83;40.85;;;19.40;83.10;;;;;;5031527;28;20057;-52
2022/10/09 06:46:40;;;;;;;56.40;39.25;;;19.40;82.90;;;;;;5031593;28;20029;-53
2022/10/09 06:49:07;;;;;;;56.67;41.83;;;19.50;82.90;;;;;;5047393;28;20056;-52
2022/10/09 06:51:33;;;;;;;57.90;40.85;;;19.50;83.10;;;;;;5051639;28;20483;-52
2022/10/09 06:54:02;;;;;;;58.35;40.97;;;19.50;83.10;;;;;;5049861;28;20413;-54
2022/10/09 06:56:30;;;;;;;54.08;40.65;;;19.50;83.10;;;;;;5049464;28;20033;-56
2022/10/09 06:59:01;;;;;;;50.35;39.25;;;19.50;83.40;;;;;;5051167;28;20028;-55
2022/10/09 07:01:30;;;;;;;58.72;41.30;;;19.50;83.30;;;;;;5051300;28;20017;-55
2022/10/09 07:03:59;;;;;;;52.65;40.20;;;19.50;83.20;;;;;;5051356;28;20021;-54
2022/10/09 07:06:28;;;;;;;60.53;41.22;;;19.50;83.00;;;;;;5044227;28;20438;-54
2022/10/09 07:08:59;;;;;;;61.88;42.78;;;19.50;83.10;;;;;;5031247;28;20170;-53
2022/10/09 07:11:31;;;;;;;64.47;42.53;;;19.50;83.20;;;;;;5035500;28;20067;-53
2022/10/09 07:13:59;;;;;;;53.95;41.63;;;19.50;83.70;;;;;;5045838;28;20036;-53
2022/10/09 07:16:28;;;;;;;56.05;41.97;;;19.50;83.70;;;;;;5034073;28;20057;-54
2022/10/09 07:18:54;;;;;;;52.67;41.50;;;19.60;83.80;;;;;;5044582;28;20040;-55
2022/10/09 07:21:21;;;;;;;57.97;43.05;;;19.60;83.60;;;;;;5049976;28;20037;-55
2022/10/09 07:23:47;;;;;;;89.10;67.30;;;19.60;83.50;;;;;;5045054;28;20022;-59
2022/10/09 07:26:25;;;;;;;57.03;42.13;;;19.70;83.50;;;;;;5041365;28;20027;-56
2022/10/09 07:28:51;;;;;;;57.35;42.55;;;19.70;83.90;;;;;;5039617;28;20154;-57
2022/10/09 07:31:17;;;;;;;60.55;41.28;;;19.70;83.70;;;;;;5038141;28;20067;-58
2022/10/09 07:33:47;;;;;;;63.67;43.50;;;19.70;84.00;;;;;;5036166;28;20051;-57
2022/10/09 07:36:13;;;;;;;54.25;41.70;;;19.70;84.30;;;;;;5041965;28;20105;-59
2022/10/09 07:38:38;;;;;;;64.18;44.70;;;19.90;90.60;;;;;;5040199;28;20117;-55
2022/10/09 07:41:07;;;;;;;60.55;44.28;;;19.80;84.10;;;;;;5039587;28;20116;-56
2022/10/09 07:43:40;;;;;;;60.90;44.15;;;19.80;84.40;;;;;;5037769;28;20021;-53
2022/10/09 07:46:12;;;;;;;61.47;44.70;;;19.90;84.40;;;;;;5036870;28;20095;-58
2022/10/09 07:48:38;;;;;;;63.20;45.58;;;19.90;84.80;;;;;;5038226;28;20029;-56
2022/10/09 07:51:17;;;;;;;67.18;45.17;;;20.00;84.80;;;;;;5034060;28;20129;-56
2022/10/09 07:53:43;;;;;;;61.17;43.78;;;20.00;84.80;;;;;;5030757;28;20040;-53
2022/10/09 07:56:17;;;;;;;67.22;45.97;;;20.10;84.60;;;;;;5030798;28;20057;-57
2022/10/09 07:58:48;;;;;;;72.85;45.90;;;20.20;84.70;;;;;;5029541;28;20026;-53
2022/10/09 08:01:14;;;;;;;65.50;43.72;;;20.20;84.90;;;;;;5042473;28;20037;-53
2022/10/09 08:03:40;;;;;;;66.15;42.55;;;20.30;84.90;;;;;;5050645;28;20021;-56
2022/10/09 08:06:06;;;;;;;63.72;42.42;;;20.30;84.70;;;;;;5051253;28;20036;-58
2022/10/09 08:08:32;;;;;;;66.97;41.53;;;20.40;84.20;;;;;;5054192;28;20025;-55
2022/10/09 08:10:58;;;;;;;71.85;41.67;;;20.60;84.00;;;;;;5054256;28;20052;-56
2022/10/09 08:13:25;;;;;;;61.55;41.28;;;20.70;83.60;;;;;;5054348;28;20090;-56
2022/10/09 08:15:50;;;;;;;50.45;36.92;;;20.70;82.80;;;;;;5054276;28;20025;-56
2022/10/09 08:18:16;;;;;;;60.22;38.90;;;20.80;82.80;;;;;;5053937;28;20036;-54
2022/10/09 08:20:42;;;;;;;51.58;36.15;;;20.80;82.40;;;;;;5046284;28;20044;-56
2022/10/09 08:23:08;;;;;;;50.47;34.47;;;20.90;81.80;;;;;;5034153;28;20079;-57
2022/10/09 08:25:37;;;;;;;48.77;35.63;;;21.00;81.30;;;;;;5034137;28;20451;-57
2022/10/09 08:28:03;;;;;;;44.13;33.15;;;21.10;81.10;;;;;;5033956;28;20030;-55
2022/10/09 08:30:30;;;;;;;47.33;34.42;;;21.20;80.60;;;;;;5034351;28;20061;-55
2022/10/09 08:32:55;;;;;;;46.13;32.57;;;21.40;80.20;;;;;;5033882;28;20109;-55
2022/10/09 08:35:21;;;;;;;48.30;30.48;;;21.40;79.60;;;;;;5033843;28;20104;-56
2022/10/09 08:37:47;;;;;;;43.58;31.67;;;21.50;78.40;;;;;;5033849;28;20030;-53
2022/10/09 08:40:22;;;;;;;40.15;30.83;;;21.40;78.30;;;;;;5033559;28;20507;-57
2022/10/09 08:42:55;;;;;;;36.97;28.90;;;21.40;78.50;;;;;;5041483;23;20030;-56
2022/10/09 08:45:21;;;;;;;46.33;31.42;;;21.40;78.30;;;;;;5012357;28;20523;-54
2022/10/09 08:47:58;;;;;;;39.97;29.58;;;21.40;78.30;;;;;;5013741;28;20049;-56
2022/10/09 08:50:29;;;;;;;36.47;27.52;;;21.50;78.80;;;;;;5013851;28;20491;-55
2022/10/09 08:53:17;;;;;;;33.00;27.65;;;21.50;77.60;;;;;;5012372;28;20022;-55
2022/10/09 08:55:48;;;;;;;37.00;28.73;;;21.60;76.60;;;;;;4994264;28;20054;-57
2022/10/09 08:58:17;;;;;;;37.47;27.95;;;21.50;76.60;;;;;;4993920;28;20041;-55
2022/10/09 09:00:52;;;;;;;36.97;28.23;;;21.70;76.40;;;;;;4994218;28;20061;-54
2022/10/09 09:03:33;;;;;;;40.35;28.83;;;21.80;75.10;;;;;;4994116;28;20026;-56
2022/10/09 09:06:13;;;;;;;36.05;29.27;;;21.90;75.50;;;;;;4994052;28;20058;-55
2022/10/09 09:08:56;;;;;;;33.42;27.65;;;21.90;74.90;;;;;;4993703;28;20366;-56
2022/10/09 09:11:43;;;;;;;34.70;27.73;;;21.90;75.30;;;;;;4994013;28;20256;-56
2022/10/09 09:14:29;;;;;;;34.70;26.20;;;21.90;75.50;;;;;;4993814;28;20508;-56
2022/10/09 09:17:14;;;;;;;36.78;24.75;;;21.90;74.90;;;;;;4993246;28;20088;-56
2022/10/09 09:19:49;;;;;;;37.17;25.30;;;21.90;74.20;;;;;;4993231;28;20022;-57
2022/10/09 09:22:16;;;;;;;35.30;26.27;;;21.90;74.30;;;;;;4993707;28;20105;-56
2022/10/09 09:24:53;;;;;;;35.00;27.67;;;21.90;74.30;;;;;;4993593;28;20025;-56
2022/10/09 09:27:29;;;;;;;39.30;26.90;;;21.90;74.90;;;;;;4993571;28;20116;-56
2022/10/09 09:29:57;;;;;;;37.15;25.83;;;22.00;74.90;;;;;;4993560;28;20033;-55
2022/10/09 09:32:27;;;;;;;34.72;24.98;;;22.00;74.60;;;;;;4993559;28;20105;-55
2022/10/09 09:35:24;;;;;;;36.67;26.85;;;22.10;74.20;;;;;;4993441;28;20034;-55
2022/10/09 09:37:50;;;;;;;28.23;23.30;;;22.10;73.70;;;;;;4977630;28;20038;-56
2022/10/09 09:40:18;;;;;;;28.83;25.38;;;22.10;73.20;;;;;;4993359;28;20022;-56
2022/10/09 09:42:44;;;;;;;36.72;24.10;;;22.10;73.60;;;;;;4993515;28;20033;-57
2022/10/09 09:45:19;;;;;;;32.70;23.08;;;22.30;73.40;;;;;;4993170;28;20034;-57
2022/10/09 09:47:50;;;;;;;27.98;21.88;;;22.50;73.00;;;;;;4993285;28;20030;-56
2022/10/09 09:50:27;;;;;;;31.70;22.52;;;22.60;72.80;;;;;;4993017;28;20057;-57
2022/10/09 09:52:54;;;;;;;28.13;21.00;;;22.80;69.80;;;;;;4991914;28;20450;-56
2022/10/09 09:55:26;;;;;;;28.58;21.67;;;22.80;70.80;;;;;;4993177;28;20030;-57
2022/10/09 09:58:00;;;;;;;31.05;20.83;;;22.80;70.90;;;;;;4993035;28;20026;-55
2022/10/09 10:00:26;;;;;;;26.85;21.40;;;22.90;70.10;;;;;;4992799;28;20504;-57
2022/10/09 10:03:22;;;;;;;27.48;19.63;;;22.90;70.40;;;;;;4992870;28;20104;-55
2022/10/09 10:05:47;;;;;;;24.38;19.23;;;23.00;69.20;;;;;;4984168;28;20092;-57
2022/10/09 10:08:26;;;;;;;24.95;18.52;;;22.80;69.60;;;;;;4992813;28;20030;-54
2022/10/09 10:10:54;;;;;;;23.95;16.95;;;22.90;69.20;;;;;;4992634;28;20034;-57
2022/10/09 10:13:28;;;;;;;21.95;15.90;;;23.00;69.30;;;;;;4992688;28;20031;-55
2022/10/09 10:15:56;;;;;;;21.33;15.18;;;23.00;67.70;;;;;;4992802;28;20030;-56
2022/10/09 10:18:24;;;;;;;18.70;14.05;;;23.00;68.90;;;;;;4992559;28;20027;-56
2022/10/09 10:21:00;;;;;;;18.63;13.25;;;23.10;68.70;;;;;;4992653;28;20053;-57
2022/10/09 10:23:50;;;;;;;23.80;15.93;;;23.10;67.60;;;;;;4992454;28;20108;-56
2022/10/09 10:26:34;;;;;;;20.17;14.85;;;23.20;68.40;;;;;;4992691;28;20038;-57
2022/10/09 10:29:19;;;;;;;20.70;14.77;;;23.30;68.40;;;;;;4992198;28;20105;-57
2022/10/09 10:32:08;;;;;;;21.08;14.00;;;23.40;67.20;;;;;;4992104;28;20042;-55
2022/10/09 10:34:46;;;;;;;20.55;13.50;;;23.50;67.70;;;;;;4992582;28;20106;-55
2022/10/09 10:37:12;;;;;;;16.88;11.70;;;23.60;68.10;;;;;;4991054;28;20404;-55
2022/10/09 10:39:53;;;;;;;14.40;10.95;;;23.70;66.40;;;;;;4992307;28;20033;-56
2022/10/09 10:42:38;;;;;;;13.35;11.13;;;23.80;66.70;;;;;;4991318;28;20221;-57
2022/10/09 10:45:15;;;;;;;16.60;11.43;;;23.80;65.60;;;;;;4991729;28;20026;-56
2022/10/09 10:47:47;;;;;;;17.05;11.55;;;23.90;65.60;;;;;;4992159;28;20054;-54
2022/10/09 10:50:14;;;;;;;13.10;10.48;;;23.90;65.30;;;;;;4991289;28;20030;-54
2022/10/09 10:52:58;;;;;;;;;;;23.80;65.40;;;;;;4992309;28;20080;-57
2022/10/09 10:55:25;;;;;;;15.52;11.07;;;23.90;64.60;;;;;;4991833;28;19956;-53
2022/10/09 10:58:06;;;;;;;;;;;24.00;65.10;;;;;;4992726;28;20561;-54
2022/10/09 11:00:37;;;;;;;19.45;10.05;;;24.10;64.30;;;;;;4991227;28;19956;-55
2022/10/09 11:03:33;;;;;;;11.90;8.48;;;24.20;63.70;;;;;;4992012;28;20026;-56
2022/10/09 11:06:25;;;;;;;14.60;8.45;;;24.30;63.40;;;;;;4991437;28;20421;-56
2022/10/09 11:09:18;;;;;;;13.98;8.85;;;24.40;63.20;;;;;;4972576;28;20049;-56
2022/10/09 11:11:49;;;;;;;18.40;10.65;;;24.50;62.80;;;;;;4990719;28;20389;-57
2022/10/09 11:14:15;;;;;;;11.40;7.50;;;24.70;62.80;;;;;;4990596;28;20031;-55
2022/10/09 11:16:56;;;;;;;16.53;7.53;;;24.70;62.60;;;;;;4991871;28;20037;-56
2022/10/09 11:19:45;;;;;;;14.73;8.23;;;24.90;60.90;;;;;;4991870;28;20030;-53
2022/10/09 11:22:25;;;;;;;11.65;8.23;;;25.00;60.80;;;;;;4992036;28;20488;-56
2022/10/09 11:25:41;;;;;;;10.55;7.00;;;25.00;61.20;;;;;;4991667;28;20025;-56
2022/10/09 11:28:23;;;;;;;8.73;5.95;;;24.90;59.20;;;;;;4967057;28;20046;-57
2022/10/09 11:31:11;;;;;;;9.00;6.93;;;24.80;60.10;;;;;;4991426;28;20046;-54
2022/10/09 11:33:39;;;;;;;9.23;6.63;;;24.90;60.00;;;;;;4991851;28;20058;-57
2022/10/09 11:36:17;;;;;;;9.65;5.93;;;24.90;60.80;;;;;;4991410;28;20041;-56
2022/10/09 11:38:45;;;;;;;;;;;24.90;60.50;;;;;;4991904;28;20027;-56
2022/10/09 11:41:11;;;;;;;7.75;6.68;;;24.80;59.60;;;;;;4992657;28;20299;-56
2022/10/09 11:43:39;;;;;;;9.90;6.07;;;24.70;60.30;;;;;;4995332;28;20031;-55
2022/10/09 11:46:30;;;;;;;12.10;6.35;;;24.70;60.30;;;;;;4995369;28;20065;-54
2022/10/09 11:49:31;;;;;;;12.45;6.93;;;24.70;60.30;;;;;;4994812;28;20032;-55
2022/10/09 11:52:02;;;;;;;15.38;5.72;;;24.70;60.70;;;;;;4995460;28;20030;-54
2022/10/09 11:54:28;;;;;;;9.88;5.70;;;24.70;58.90;;;;;;4993972;28;20034;-56
2022/10/09 11:56:59;;;;;;;7.10;5.30;;;24.50;59.20;;;;;;4995008;28;20551;-53
2022/10/09 11:59:35;;;;;;;7.68;5.45;;;24.50;58.60;;;;;;4994778;28;20096;-57
2022/10/09 12:02:26;;;;;;;8.98;4.63;;;24.40;59.20;;;;;;4995190;28;20109;-54
2022/10/09 12:04:52;;;;;;;11.70;5.82;;;24.30;59.70;;;;;;5010135;28;20457;-55
2022/10/09 12:07:29;;;;;;;10.93;5.45;;;24.40;60.00;;;;;;4994439;28;20076;-57
2022/10/09 12:10:21;;;;;;;9.63;5.70;;;24.50;59.80;;;;;;4994565;28;20101;-56
2022/10/09 12:13:05;;;;;;;12.43;5.88;;;24.50;60.00;;;;;;4994637;28;20030;-56
2022/10/09 12:15:44;;;;;;;7.18;5.68;;;24.60;59.40;;;;;;4994416;28;20070;-56
2022/10/09 12:18:30;;;;;;;7.18;5.93;;;24.60;58.80;;;;;;4994384;28;20496;-56
2022/10/09 12:20:59;;;;;;;7.13;5.43;;;24.60;58.80;;;;;;4994663;28;20030;-55
2022/10/09 12:23:30;;;;;;;8.18;4.72;;;24.60;58.10;;;;;;4994414;28;20053;-56
2022/10/09 12:25:56;;;;;;;17.92;6.07;;;24.60;58.20;;;;;;4994612;28;20070;-55
2022/10/09 12:28:33;;;;;;;12.25;4.57;;;24.60;57.90;;;;;;4994212;28;20081;-54
2022/10/09 12:31:02;;;;;;;11.90;4.75;;;24.70;58.00;;;;;;4994725;28;20022;-57
2022/10/09 12:33:44;;;;;;;9.23;4.68;;;24.80;57.30;;;;;;4994353;28;20026;-56
2022/10/09 12:36:15;;;;;;;20.10;4.70;;;25.00;58.30;;;;;;4994441;28;20034;-56
2022/10/09 12:38:42;;;;;;;9.07;4.85;;;25.30;58.10;;;;;;4993884;28;20520;-55
2022/10/09 12:41:20;;;;;;;7.05;3.70;;;25.70;56.40;;;;;;4993796;28;20026;-56
2022/10/09 12:43:49;;;;;;;9.40;3.97;;;25.90;54.90;;;;;;4991289;28;20069;-56
2022/10/09 12:46:25;;;;;;;9.18;4.40;;;25.90;55.10;;;;;;4992451;28;20489;-55
2022/10/09 12:48:51;;;;;;;10.05;3.75;;;26.00;54.60;;;;;;5009287;28;20413;-54